Date,TemperatureHighF,TemperatureAvgF,TemperatureLowF,DewpointHighF,DewpointAvgF,DewpointLowF,HumidityHigh,HumidityAvg,HumidityLow,PressureMaxIn,PressureMinIn,WindSpeedMaxMPH,WindSpeedAvgMPH,GustSpeedMaxMPH,PrecipitationSumIn
2013-1-1,16,3,-8,8,-2,-13,83,77,67,30.02,29.88,5,0,5,0.00
2013-1-2,25,18,11,17,12,5,84,75,60,29.90,29.80,11,2,11,0.00
2013-1-3,30,19,10,21,14,6,85,80,69,29.97,29.80,8,0,8,0.00
2013-1-4,30,18,8,21,13,4,88,80,67,29.95,29.81,8,2,8,0.00
2013-1-5,36,23,10,30,19,6,90,85,73,29.97,29.63,11,2,11,0.00
2013-1-6,36,24,11,29,19,7,87,80,66,30.03,29.63,22,0,22,0.02
2013-1-7,36,24,10,27,18,6,87,80,68,30.02,29.75,18,5,18,0.00
2013-1-8,36,28,17,31,24,14,91,85,77,29.88,29.65,16,4,16,0.00
2013-1-9,40,32,22,31,25,17,89,77,59,30.21,29.64,13,2,13,0.00
2013-1-10,41,30,19,32,25,16,92,83,68,30.26,29.66,17,3,17,0.22
2013-1-11,43,38,34,41,36,32,96,93,88,29.66,29.36,19,4,19,0.11
2013-1-12,41,33,21,40,28,14,96,82,70,29.80,29.35,16,4,16,0.00
2013-1-13,21,16,10,14,9,2,76,72,63,29.97,29.69,11,1,11,0.00
2013-1-14,24,12,4,13,6,-1,83,75,62,30.19,29.96,9,0,9,0.00
2013-1-15,30,17,7,20,11,2,87,78,59,30.17,29.80,15,3,15,0.00
2013-1-16,34,25,15,28,19,10,89,79,69,29.87,29.49,18,4,18,0.00
2013-1-17,23,14,7,13,5,0,78,68,50,30.16,29.86,12,1,12,0.00
2013-1-18,40,26,6,31,20,0,86,79,71,30.16,29.55,23,5,23,0.00
2013-1-19,47,34,10,37,27,0,90,76,47,29.74,29.39,20,3,20,0.04
2013-1-20,14,8,3,1,-3,-6,71,62,51,30.07,29.74,14,2,14,0.00
2013-1-21,6,-1,-8,-2,-10,-17,74,64,52,30.04,29.88,13,2,13,0.00
2013-1-22,7,-4,-11,-6,-12,-18,74,67,53,30.11,30.03,9,1,9,0.00
2013-1-23,22,9,-3,13,2,-10,77,73,67,30.20,29.83,7,0,7,0.00
2013-1-24,18,6,-6,8,-2,-12,80,70,55,30.42,30.10,6,0,6,0.00
2013-1-25,26,17,6,18,11,1,83,77,69,30.11,29.69,13,3,13,0.00
2013-1-26,27,13,0,17,7,-5,84,76,61,30.16,29.96,9,0,9,0.00
2013-1-27,32,27,21,30,22,14,93,81,71,30.09,29.63,18,4,18,0.00
2013-1-28,44,34,29,37,31,27,95,87,70,29.73,29.55,10,1,10,0.14
2013-1-29,48,39,32,47,37,30,96,95,92,29.56,29.28,16,2,16,0.77
2013-1-30,34,27,14,33,25,11,96,92,84,29.35,29.12,12,0,12,0.00
2013-1-31,19,10,-2,11,4,-6,87,78,64,29.87,29.35,0,0,0,0.00
2013-2-1,7,0,-8,-1,-6,-13,81,75,64,30.05,29.88,0,0,0,0.00
2013-2-2,15,6,0,4,0,-6,82,74,61,29.89,29.76,0,0,0,0.04
2013-2-3,20,10,0,9,4,-4,84,76,62,29.79,29.68,0,0,0,0.00
2013-2-4,19,11,3,8,3,-4,83,73,56,29.78,29.68,0,0,0,0.00
2013-2-5,31,18,2,23,12,-4,84,79,71,29.88,29.50,0,0,0,0.00
2013-2-6,36,18,1,25,13,-4,90,80,56,30.00,29.83,20,1,20,0.00
2013-2-7,34,29,21,31,26,18,93,90,84,29.90,29.73,22,3,22,0.00
2013-2-8,26,18,8,19,12,3,90,80,65,30.16,29.89,12,1,12,0.10
2013-2-9,26,18,8,23,14,4,88,86,83,30.16,29.85,5,0,5,0.00
2013-2-10,39,31,20,37,29,18,95,91,86,29.86,29.15,25,7,25,0.33
2013-2-11,27,26,26,21,20,20,78,78,77,29.74,29.64,12,3,12,0.00
2013-2-12,31,24,17,21,17,13,86,76,63,29.83,29.60,11,1,11,0.00
2013-2-13,44,30,17,33,24,14,92,79,59,29.61,29.44,9,0,9,0.00
2013-2-14,39,34,31,34,30,26,92,87,77,29.60,29.33,12,0,12,0.10
2013-2-16,5,-1,-2,-6,-9,-10,70,67,59,29.97,29.95,0,0,0,0.00
2013-2-17,24,10,-6,14,1,-12,80,67,52,29.97,29.69,13,2,13,0.00
2013-2-18,48,33,23,34,25,14,90,74,58,29.70,29.22,17,4,17,0.02
2013-2-19,27,14,5,25,7,-3,90,73,55,29.93,29.28,6,0,6,0.00
2013-2-20,28,12,0,13,3,-6,78,67,51,30.17,29.93,8,1,8,0.02
2013-2-21,25,17,3,21,12,-3,92,80,69,30.22,29.88,18,4,18,0.00
2013-2-22,37,27,21,31,23,19,92,86,75,29.88,29.57,21,4,21,0.00
2013-2-23,42,28,19,28,21,12,88,76,55,29.70,29.58,7,0,7,0.00
2013-2-24,48,27,14,32,20,9,86,76,49,29.91,29.69,6,0,6,0.11
2013-2-25,49,30,17,30,22,13,90,74,47,29.94,29.83,8,0,8,0.00
2013-2-26,36,30,24,28,25,22,92,84,66,29.85,29.47,22,8,22,0.00
2013-2-27,35,31,28,30,27,25,91,87,81,29.59,29.43,14,4,14,0.02
2013-2-28,38,31,23,30,25,16,91,78,67,29.93,29.58,12,2,12,0.02
2013-3-1,35,26,22,20,18,14,83,71,53,30.03,29.92,10,2,10,0.02
2013-3-2,31,19,7,16,8,1,78,65,52,29.99,29.92,4,0,4,0.00
2013-3-3,30,14,-2,14,5,-7,83,68,44,29.94,29.87,22,0,22,0.00
2013-3-4,35,22,6,22,13,0,84,71,55,29.91,29.84,10,3,10,0.00
2013-3-5,31,26,19,25,21,16,89,82,75,29.90,29.71,11,3,11,0.00
2013-3-6,45,31,24,30,23,17,89,74,53,30.09,29.90,6,0,6,0.12
2013-3-7,39,23,7,24,14,2,85,71,49,30.21,30.08,4,0,4,0.00
2013-3-8,41,28,17,29,20,12,85,75,60,30.24,30.05,11,2,11,0.00
2013-3-9,44,35,26,34,29,22,91,81,66,30.05,29.57,11,4,11,0.35
2013-3-10,39,35,32,37,34,30,95,93,86,29.62,29.45,29,5,29,0.75
2013-3-11,42,33,27,37,31,23,96,91,82,29.53,29.33,10,0,10,0.04
2013-3-12,41,29,20,27,22,13,89,74,54,29.80,29.52,11,1,11,0.00
2013-3-13,36,24,15,16,12,8,84,63,39,30.08,29.80,10,1,10,0.00
2013-3-14,45,27,12,26,17,6,84,67,42,30.08,29.81,8,1,8,0.00
2013-3-15,43,31,25,35,27,21,91,85,71,29.81,29.64,13,2,13,0.02
2013-3-16,43,26,17,24,17,10,91,71,45,29.92,29.63,12,2,12,0.12
2013-3-17,29,18,8,16,9,3,79,69,54,30.08,29.81,10,3,10,0.00
2013-3-18,43,27,16,33,22,11,86,79,64,29.81,29.32,11,2,11,0.07
2013-3-19,33,20,13,14,9,4,80,64,41,29.79,29.43,12,2,12,0.00
2013-3-20,28,14,5,8,1,-4,66,57,41,29.83,29.77,10,2,10,0.00
2013-3-21,36,17,1,16,6,-5,78,62,43,29.83,29.77,7,0,7,0.00
2013-3-22,40,21,5,22,11,0,83,67,47,29.86,29.80,7,0,7,0.00
2013-3-23,42,28,12,24,17,7,82,66,42,29.94,29.85,8,1,8,0.00
2013-3-24,37,30,25,27,23,18,82,74,65,29.87,29.61,11,3,11,0.00
2013-3-25,43,30,17,28,21,12,86,70,54,29.89,29.63,11,1,11,0.00
2013-3-26,54,36,26,31,24,20,78,63,40,30.03,29.89,6,0,6,0.00
2013-3-27,48,36,24,28,22,15,78,58,37,30.09,30.02,8,0,8,0.00
2013-3-28,49,32,17,26,19,12,85,61,35,30.13,30.06,22,0,22,0.00
2013-3-29,49,34,20,28,22,15,87,63,40,30.12,29.99,4,0,4,0.00
2013-3-30,54,40,30,38,30,21,89,69,53,30.00,29.60,13,3,13,0.04
2013-3-31,48,37,26,38,31,16,93,78,61,29.70,29.49,10,1,10,0.00
2013-4-1,36,28,17,20,14,10,83,59,39,29.95,29.70,10,1,10,0.00
2013-4-2,40,28,18,19,14,11,77,57,36,30.10,29.94,10,1,10,0.00
2013-4-3,44,31,16,23,17,11,87,59,39,30.26,30.03,10,2,10,0.00
2013-4-4,59,41,28,34,26,19,74,58,37,30.03,29.73,22,3,22,0.00
2013-4-5,50,35,24,28,23,18,87,64,39,30.05,29.85,11,2,11,0.00
2013-4-6,58,43,30,46,35,24,89,76,54,29.95,29.31,17,5,17,0.06
2013-4-7,51,41,34,45,33,29,88,75,57,29.75,29.33,14,2,14,0.00
2013-4-8,47,39,33,42,35,29,92,85,80,29.82,29.47,13,2,13,0.26
2013-4-9,38,36,32,37,34,29,96,93,85,29.87,29.70,22,6,22,0.84
2013-4-10,34,32,31,32,30,29,95,93,86,29.95,29.74,18,1,18,0.37
2013-4-11,36,34,32,34,32,29,96,92,86,29.76,29.39,32,11,32,0.37
2013-4-12,42,35,32,37,32,30,97,92,80,29.56,29.33,12,2,12,0.14
2013-4-13,42,35,30,32,28,25,93,78,61,29.78,29.54,11,1,11,0.02
2013-4-14,46,34,25,42,30,21,89,85,80,29.81,29.37,22,8,22,0.08
2013-4-15,65,46,34,51,39,28,95,77,43,29.74,29.36,20,4,20,0.33
2013-4-16,52,40,27,35,30,23,90,69,48,30.10,29.74,13,2,13,0.00
2013-4-17,42,38,32,38,33,26,94,85,71,30.14,29.71,22,7,22,0.38
2013-4-18,50,41,38,49,40,37,97,95,93,29.70,29.09,26,6,26,0.33
2013-4-19,42,35,26,37,28,18,94,77,56,29.69,29.08,14,4,14,0.02
2013-4-20,46,33,20,27,18,14,86,57,31,30.18,29.69,8,1,8,0.00
2013-4-21,53,39,28,36,27,20,82,65,43,30.29,30.03,15,6,15,0.00
2013-4-22,73,53,41,46,38,31,75,58,37,30.03,29.79,14,6,14,0.00
2013-4-23,50,43,36,42,34,27,84,70,58,29.80,29.65,12,2,12,0.00
2013-4-24,57,42,28,31,25,22,82,56,30,29.82,29.75,14,2,14,0.00
2013-4-25,57,44,34,37,30,24,89,61,37,30.06,29.72,13,3,13,0.00
2013-4-26,73,54,34,46,38,25,72,56,36,30.06,29.89,23,7,23,0.00
2013-4-27,73,58,44,53,46,40,90,66,45,30.01,29.81,13,4,13,0.00
2013-4-28,77,60,44,48,43,38,79,56,33,29.82,29.59,10,1,10,0.00
2013-4-29,76,62,50,57,52,45,87,71,47,29.64,29.51,16,3,16,0.00
2013-4-30,87,71,58,65,55,48,91,62,33,29.69,29.46,20,8,20,0.10
2013-5-1,80,64,49,57,49,39,83,61,43,30.07,29.69,14,3,14,0.00
2013-5-2,54,45,37,43,36,32,87,71,56,30.12,30.03,16,5,16,0.09
2013-5-3,46,40,34,44,37,31,95,92,87,30.04,29.82,57,6,57,0.44
2013-5-4,73,56,42,54,47,40,94,74,46,29.88,29.80,14,5,14,0.06
2013-5-5,75,59,44,51,45,40,87,62,39,29.90,29.83,12,4,12,0.00
2013-5-6,78,61,43,51,42,36,82,53,28,29.90,29.80,10,2,10,0.00
2013-5-7,81,57,48,44,40,38,70,55,26,29.86,29.80,9,1,9,0.00
2013-5-8,89,75,48,54,49,42,79,43,23,29.85,29.76,11,2,11,0.00
2013-5-9,58,49,43,50,46,41,94,90,73,29.76,29.73,21,9,21,0.70
2013-5-10,68,46,38,50,41,37,95,84,52,29.81,29.72,21,4,21,0.30
2013-5-11,58,50,41,49,34,24,94,57,38,29.80,29.57,12,4,12,0.02
2013-5-12,68,50,35,32,28,22,76,44,26,29.92,29.84,13,2,13,0.05
2013-5-13,35,30,28,28,25,24,88,81,76,29.94,29.91,5,0,5,0.00
2013-5-14,48,48,47,38,38,38,70,69,69,29.52,29.51,8,5,8,0.00
2013-5-15,93,62,53,48,41,39,65,49,22,29.66,29.48,6,0,6,0.00
2013-5-16,75,58,48,49,41,35,77,54,37,29.83,29.65,13,4,13,0.00
2013-5-17,58,54,52,52,43,35,87,68,44,29.89,29.80,14,5,14,0.34
2013-5-23,65,60,54,37,36,35,48,42,36,30.03,30.01,5,1,5,0.00
2013-5-24,82,58,49,45,38,34,70,48,27,30.16,30.11,8,1,8,0.00
2013-5-25,62,60,58,38,38,37,45,44,42,30.11,30.10,9,7,9,0.00
2013-5-27,60,56,53,52,49,48,83,79,73,29.83,29.77,24,11,24,0.00
2013-5-31,82,70,66,62,61,60,84,72,51,29.52,29.49,15,6,15,0.00
2013-6-1,72,68,65,56,54,53,64,61,57,29.48,29.45,6,0,6,0.00
2013-6-7,79,70,60,57,50,46,67,50,42,29.80,29.73,6,0,6,0.00
2013-6-8,72,66,61,58,54,51,78,66,53,29.81,29.77,7,1,7,0.00
2013-6-9,78,68,58,63,57,50,75,67,61,29.78,29.73,13,6,13,0.00
2013-6-10,82,66,59,66,59,55,90,80,58,29.62,29.60,2,0,2,0.00
2013-6-11,84,68,58,68,60,56,92,78,56,29.69,29.63,2,0,2,0.00
2013-6-12,65,64,64,62,62,60,92,91,89,29.67,29.54,8,3,8,0.33
2013-6-13,56,55,54,54,53,52,94,93,93,29.69,29.66,0,0,0,0.00
2013-6-14,74,62,51,58,52,47,88,72,56,29.92,29.82,7,0,7,0.00
2013-6-15,88,85,80,71,70,68,66,60,57,29.67,29.63,10,2,10,0.00
2013-6-16,62,61,61,60,59,59,93,93,93,29.67,29.66,0,0,0,0.00
2013-6-18,72,58,51,49,48,47,90,74,41,29.90,29.85,8,2,8,0.00
2013-6-19,44,44,44,40,40,40,86,86,85,29.93,29.92,0,0,0,0.00
2013-6-20,60,58,58,47,46,46,64,64,63,29.93,29.92,1,0,1,0.00
2013-6-21,78,72,67,67,63,58,76,73,69,29.86,29.80,7,0,7,1.09
2013-6-22,76,73,68,69,68,66,93,86,79,29.89,29.76,9,2,9,0.10
2013-6-23,87,82,77,73,71,68,76,69,61,29.77,29.69,12,6,12,0.00
2013-6-24,68,67,66,65,64,64,91,91,90,29.76,29.75,2,0,2,0.00
2013-6-25,80,70,66,70,65,63,92,86,71,29.70,29.63,7,1,7,0.15
2013-6-26,68,67,67,66,65,65,94,93,93,29.58,29.55,0,0,0,0.00
2013-6-27,68,68,67,65,64,64,90,89,89,29.59,29.57,0,0,0,0.00
2013-6-28,73,67,64,62,61,60,87,81,66,29.51,29.46,5,0,5,0.06
2013-6-30,89,79,68,56,52,49,57,41,32,29.84,29.77,8,2,8,0.00
2013-7-1,83,59,53,56,50,48,85,76,39,29.93,29.90,6,0,6,0.00
2013-7-2,79,66,57,52,49,46,83,59,31,29.93,29.90,8,3,8,0.00
2013-7-3,68,65,59,60,58,52,80,78,75,29.89,29.83,0,0,0,0.00
2013-7-5,99,78,63,68,63,59,87,63,36,29.84,29.79,7,2,7,0.00
2013-7-6,101,90,74,70,68,64,79,50,36,29.84,29.75,9,2,9,0.00
2013-7-7,92,85,77,75,73,70,84,67,58,29.77,29.76,7,2,8,0.00
2013-7-8,98,86,75,76,73,69,83,65,47,29.77,29.68,10,2,10,1.00
2013-7-9,100,79,66,78,71,64,93,78,48,29.79,29.60,11,2,11,0.84
2013-7-10,96,72,61,68,62,55,92,74,33,29.84,29.63,8,0,8,0.00
2013-7-11,98,70,55,64,56,52,90,68,32,29.91,29.88,6,0,6,0.00
2013-7-12,77,66,57,55,53,52,82,66,47,29.93,29.89,0,0,0,0.00
2013-7-19,104,90,73,76,67,61,68,49,29,29.61,29.54,11,1,11,0.00
2013-7-20,78,73,69,60,59,58,67,62,55,29.75,29.73,10,4,10,0.00
2013-7-21,80,70,64,63,61,58,91,75,49,29.81,29.73,8,1,8,0.55
2013-7-25,81,81,80,64,64,64,58,57,56,29.80,29.79,9,4,9,0.00
2013-7-29,88,75,63,62,58,54,73,56,40,29.97,29.93,4,0,4,0.00
2013-8-6,86,84,83,66,66,65,56,54,51,29.61,29.61,6,1,6,0.00
2013-8-7,80,79,76,63,63,61,61,58,55,29.73,29.71,0,0,0,0.00
2013-8-8,83,72,62,60,55,50,69,57,41,29.82,29.80,7,0,7,0.00
2013-8-9,63,61,59,53,51,49,78,71,66,29.88,29.79,0,0,0,0.00
2013-8-10,59,57,55,52,51,50,82,80,78,29.91,29.88,0,0,0,0.00
2013-8-11,70,68,65,64,63,60,88,84,80,29.93,29.87,4,0,4,0.13
2013-8-12,59,58,58,57,56,56,93,93,92,29.83,29.82,0,0,0,0.00
2013-8-13,69,58,53,50,48,45,78,68,50,29.99,29.92,7,0,7,0.00
2013-8-14,76,58,46,55,48,42,86,73,46,30.01,29.92,0,0,0,0.00
2013-8-15,58,56,52,51,50,48,86,82,79,29.94,29.93,0,0,0,0.00
2013-8-16,83,73,65,61,57,54,68,58,45,29.99,29.97,0,0,0,0.00
2013-8-17,66,63,61,54,54,53,77,72,67,30.00,29.98,0,0,0,0.00
2013-8-18,61,60,58,55,54,53,83,80,77,30.00,29.98,2,0,2,0.00
2013-8-21,94,92,88,74,72,70,57,53,51,29.78,29.71,15,8,15,0.00
2013-8-23,88,86,82,62,61,58,46,42,39,29.96,29.95,8,1,8,0.00
2013-8-30,84,80,76,69,67,65,71,65,61,29.69,29.64,8,2,8,0.00
2013-8-31,81,75,68,66,64,61,80,68,61,29.66,29.62,8,0,8,0.00
2013-9-1,76,72,67,57,56,55,67,60,53,29.62,29.60,0,0,0,0.00
2013-9-4,77,76,75,64,63,63,67,65,63,29.89,29.88,8,5,8,0.00
2013-9-5,79,66,54,56,52,47,77,62,45,30.05,30.02,11,2,11,0.00
2013-9-6,79,61,52,64,53,46,80,75,61,30.04,29.80,6,0,6,0.00
2013-9-7,85,78,71,70,68,65,83,73,60,29.80,29.71,13,2,13,0.00
2013-9-10,90,80,73,66,65,63,74,60,43,29.78,29.69,7,0,7,0.00
2013-9-11,73,71,69,65,64,63,85,80,75,29.81,29.77,0,0,0,0.00
2013-9-13,64,63,60,42,42,41,50,46,43,29.98,29.97,8,1,8,0.00
2013-9-20,71,69,64,58,56,53,69,65,60,29.60,29.57,8,1,8,0.00
2013-9-26,74,65,59,54,53,50,74,66,51,29.88,29.85,8,1,8,0.00
2013-9-28,70,68,67,63,63,62,86,83,77,29.67,29.64,8,5,12,0.06
2013-9-29,71,66,54,56,51,46,94,62,45,29.87,29.80,10,1,10,0.00
2013-10-4,60,59,59,59,58,57,95,95,94,29.81,29.78,11,4,11,0.02
2013-10-12,69,54,44,48,41,36,77,62,45,29.95,29.75,8,1,8,0.00
2013-10-13,46,42,37,39,36,33,84,78,74,30.07,29.95,5,0,5,0.00
2013-10-18,46,45,44,40,38,38,78,77,76,29.70,29.66,7,1,7,0.00
2013-10-25,48,47,46,32,30,29,53,52,52,29.82,29.71,19,8,19,0.00
2013-10-29,43,43,43,38,38,37,81,80,80,29.99,29.99,2,1,2,0.00
2013-11-2,41,38,37,37,35,34,91,89,87,29.91,29.84,0,0,0,0.02
2013-11-8,41,40,38,33,33,32,80,77,74,29.82,29.67,21,6,21,0.00
2013-11-14,46,40,38,32,30,28,74,68,54,29.67,29.64,11,1,11,0.00
2013-11-15,42,40,38,34,33,32,78,76,71,29.68,29.66,12,3,12,0.00
2013-11-23,14,10,6,2,0,-2,72,65,59,30.46,30.44,6,0,6,0.00
2013-11-26,16,13,11,6,4,3,70,68,66,29.98,29.92,2,0,2,0.00
2013-11-29,24,23,22,17,16,16,77,75,74,30.22,30.18,6,0,6,0.00
2013-12-4,45,44,44,44,43,43,97,97,97,29.25,29.20,12,6,12,0.00
2013-12-6,6,5,4,0,-1,-2,76,75,74,30.25,30.21,2,0,2,0.00
2013-12-9,-3,-4,-5,-10,-10,-11,76,75,74,29.90,29.88,4,1,4,0.00
2013-12-13,15,14,14,8,8,7,75,75,73,30.03,29.99,11,5,11,0.00
2013-12-19,25,23,21,21,19,17,85,83,81,29.78,29.74,16,6,16,0.00
2013-12-20,22,21,21,19,18,18,90,89,87,29.65,29.59,7,0,7,0.00
2013-12-21,27,24,21,25,21,18,93,90,88,29.69,29.56,15,1,15,0.00
2013-12-22,26,22,16,22,18,12,90,83,78,29.89,29.59,12,1,12,0.00
2013-12-23,27,15,6,22,10,1,90,83,73,30.16,29.88,0,0,0,0.00
2013-12-24,8,8,7,4,3,2,83,82,81,30.12,30.04,12,5,12,0.00
2013-12-25,26,17,8,19,13,4,87,83,74,30.04,29.81,12,2,12,0.00
2013-12-26,26,18,9,19,13,6,87,81,71,29.99,29.83,7,0,7,0.00
2013-12-28,34,32,31,30,29,27,87,86,86,29.54,29.51,11,1,11,0.00
2013-12-29,31,29,28,27,26,25,87,86,86,29.51,29.49,0,0,0,0.00
2013-12-30,6,1,-2,-5,-7,-10,77,67,55,29.98,29.93,0,0,0,0.00
2013-12-31,12,2,-10,3,-5,-16,79,72,63,30.14,29.92,22,0,22,0.00
2014-1-1,10,2,-8,-1,-6,-15,73,68,59,30.19,30.08,9,1,9,0.00
2014-1-2,11,2,-11,1,-5,-17,76,72,63,30.18,30.05,10,1,10,0.00